sensor_id;sensor_type;location;lat;lon;timestamp;pressure;altitude;pressure_sealevel;temperature
24639;BMP180;1641;51.306;12.384;2023-04-15T00:02:16;99127.00;;;8.20
24639;BMP180;1641;51.306;12.384;2023-04-15T00:04:46;99123.00;;;8.10
24639;BMP180;1641;51.306;12.384;2023-04-15T00:07:14;99068.00;;;8.10
24639;BMP180;1641;51.306;12.384;2023-04-15T00:09:43;99115.00;;;8.40
24639;BMP180;1641;51.306;12.384;2023-04-15T00:12:09;99114.00;;;8.30
24639;BMP180;1641;51.306;12.384;2023-04-15T00:14:35;99099.00;;;8.30
24639;BMP180;1641;51.306;12.384;2023-04-15T00:17:01;99102.00;;;8.40
24639;BMP180;1641;51.306;12.384;2023-04-15T00:19:27;99111.00;;;8.20
24639;BMP180;1641;51.306;12.384;2023-04-15T00:21:52;99109.00;;;8.20
24639;BMP180;1641;51.306;12.384;2023-04-15T00:24:18;99102.00;;;8.20
24639;BMP180;1641;51.306;12.384;2023-04-15T00:26:43;99105.00;;;8.20
24639;BMP180;1641;51.306;12.384;2023-04-15T00:29:09;99095.00;;;8.30
24639;BMP180;1641;51.306;12.384;2023-04-15T00:31:34;99087.00;;;8.40
24639;BMP180;1641;51.306;12.384;2023-04-15T00:33:59;99101.00;;;8.30
24639;BMP180;1641;51.306;12.384;2023-04-15T00:36:25;99097.00;;;8.10
24639;BMP180;1641;51.306;12.384;2023-04-15T00:38:53;99089.00;;;8.40
24639;BMP180;1641;51.306;12.384;2023-04-15T00:41:18;99103.00;;;8.50
24639;BMP180;1641;51.306;12.384;2023-04-15T00:43:45;99093.00;;;8.30
24639;BMP180;1641;51.306;12.384;2023-04-15T00:46:12;99089.00;;;8.40
24639;BMP180;1641;51.306;12.384;2023-04-15T00:48:38;99093.00;;;8.50
24639;BMP180;1641;51.306;12.384;2023-04-15T00:51:03;99089.00;;;8.30
24639;BMP180;1641;51.306;12.384;2023-04-15T00:53:29;99087.00;;;8.20
24639;BMP180;1641;51.306;12.384;2023-04-15T00:55:54;99074.00;;;8.20
24639;BMP180;1641;51.306;12.384;2023-04-15T00:58:20;99075.00;;;8.10
24639;BMP180;1641;51.306;12.384;2023-04-15T01:00:45;99078.00;;;7.90
24639;BMP180;1641;51.306;12.384;2023-04-15T01:03:11;99081.00;;;8.10
24639;BMP180;1641;51.306;12.384;2023-04-15T01:05:37;99063.00;;;8.10
24639;BMP180;1641;51.306;12.384;2023-04-15T01:08:02;99080.00;;;8.30
24639;BMP180;1641;51.306;12.384;2023-04-15T01:10:27;99080.00;;;8.60
24639;BMP180;1641;51.306;12.384;2023-04-15T01:12:53;99068.00;;;8.30
24639;BMP180;1641;51.306;12.384;2023-04-15T01:15:19;99053.00;;;8.40
24639;BMP180;1641;51.306;12.384;2023-04-15T01:17:44;99071.00;;;8.60
24639;BMP180;1641;51.306;12.384;2023-04-15T01:20:10;99061.00;;;8.20
24639;BMP180;1641;51.306;12.384;2023-04-15T01:22:36;99033.00;;;8.20
24639;BMP180;1641;51.306;12.384;2023-04-15T01:25:10;99048.00;;;8.40
24639;BMP180;1641;51.306;12.384;2023-04-15T01:27:42;99064.00;;;8.40
24639;BMP180;1641;51.306;12.384;2023-04-15T01:30:11;99062.00;;;8.00
24639;BMP180;1641;51.306;12.384;2023-04-15T01:32:36;99062.00;;;8.10
24639;BMP180;1641;51.306;12.384;2023-04-15T01:35:02;99048.00;;;8.10
24639;BMP180;1641;51.306;12.384;2023-04-15T01:37:27;99062.00;;;8.10
24639;BMP180;1641;51.306;12.384;2023-04-15T01:39:53;99040.00;;;8.40
24639;BMP180;1641;51.306;12.384;2023-04-15T01:42:20;99058.00;;;8.20
24639;BMP180;1641;51.306;12.384;2023-04-15T01:44:45;99043.00;;;8.00
24639;BMP180;1641;51.306;12.384;2023-04-15T01:47:11;99039.00;;;7.90
24639;BMP180;1641;51.306;12.384;2023-04-15T01:49:36;99050.00;;;8.00
24639;BMP180;1641;51.306;12.384;2023-04-15T01:52:01;99044.00;;;8.10
24639;BMP180;1641;51.306;12.384;2023-04-15T01:54:27;99041.00;;;8.10
24639;BMP180;1641;51.306;12.384;2023-04-15T01:56:52;99044.00;;;8.10
24639;BMP180;1641;51.306;12.384;2023-04-15T01:59:17;99015.00;;;8.30
24639;BMP180;1641;51.306;12.384;2023-04-15T02:01:43;99036.00;;;8.10
24639;BMP180;1641;51.306;12.384;2023-04-15T02:04:09;99017.00;;;8.10
24639;BMP180;1641;51.306;12.384;2023-04-15T02:06:40;99022.00;;;8.00
24639;BMP180;1641;51.306;12.384;2023-04-15T02:09:06;99028.00;;;8.20
24639;BMP180;1641;51.306;12.384;2023-04-15T02:11:31;99026.00;;;8.00
24639;BMP180;1641;51.306;12.384;2023-04-15T02:13:57;99016.00;;;7.90
24639;BMP180;1641;51.306;12.384;2023-04-15T02:16:22;99019.00;;;8.00
24639;BMP180;1641;51.306;12.384;2023-04-15T02:18:47;99028.00;;;7.90
24639;BMP180;1641;51.306;12.384;2023-04-15T02:21:13;99012.00;;;7.80
24639;BMP180;1641;51.306;12.384;2023-04-15T02:23:38;99014.00;;;7.80
24639;BMP180;1641;51.306;12.384;2023-04-15T02:26:03;99007.00;;;7.80
24639;BMP180;1641;51.306;12.384;2023-04-15T02:28:29;99013.00;;;7.70
24639;BMP180;1641;51.306;12.384;2023-04-15T02:30:54;99014.00;;;7.70
24639;BMP180;1641;51.306;12.384;2023-04-15T02:33:21;99016.00;;;7.60
24639;BMP180;1641;51.306;12.384;2023-04-15T02:35:47;99012.00;;;7.80
24639;BMP180;1641;51.306;12.384;2023-04-15T02:38:12;99005.00;;;7.90
24639;BMP180;1641;51.306;12.384;2023-04-15T02:40:38;99011.00;;;7.90
24639;BMP180;1641;51.306;12.384;2023-04-15T02:43:04;99001.00;;;8.10
24639;BMP180;1641;51.306;12.384;2023-04-15T02:45:31;98998.00;;;8.00
24639;BMP180;1641;51.306;12.384;2023-04-15T02:47:56;98998.00;;;8.10
24639;BMP180;1641;51.306;12.384;2023-04-15T02:50:22;99006.00;;;7.80
24639;BMP180;1641;51.306;12.384;2023-04-15T02:52:48;99006.00;;;7.60
24639;BMP180;1641;51.306;12.384;2023-04-15T02:55:14;98988.00;;;7.70
24639;BMP180;1641;51.306;12.384;2023-04-15T02:57:39;98996.00;;;7.70
24639;BMP180;1641;51.306;12.384;2023-04-15T03:00:06;99003.00;;;7.80
24639;BMP180;1641;51.306;12.384;2023-04-15T03:02:37;98989.00;;;7.80
24639;BMP180;1641;51.306;12.384;2023-04-15T03:05:03;98993.00;;;7.90
24639;BMP180;1641;51.306;12.384;2023-04-15T03:07:30;98960.00;;;8.00
24639;BMP180;1641;51.306;12.384;2023-04-15T03:09:55;99003.00;;;7.90
24639;BMP180;1641;51.306;12.384;2023-04-15T03:12:20;98991.00;;;7.90
24639;BMP180;1641;51.306;12.384;2023-04-15T03:14:46;98988.00;;;7.80
24639;BMP180;1641;51.306;12.384;2023-04-15T03:17:11;99004.00;;;7.90
24639;BMP180;1641;51.306;12.384;2023-04-15T03:19:36;99007.00;;;7.90
24639;BMP180;1641;51.306;12.384;2023-04-15T03:22:01;99004.00;;;8.10
24639;BMP180;1641;51.306;12.384;2023-04-15T03:24:27;99008.00;;;8.30
24639;BMP180;1641;51.306;12.384;2023-04-15T03:26:53;99001.00;;;8.00
24639;BMP180;1641;51.306;12.384;2023-04-15T03:29:19;98977.00;;;8.00
24639;BMP180;1641;51.306;12.384;2023-04-15T03:31:44;98991.00;;;8.00
24639;BMP180;1641;51.306;12.384;2023-04-15T03:34:10;98996.00;;;8.30
24639;BMP180;1641;51.306;12.384;2023-04-15T03:36:35;99008.00;;;8.10
24639;BMP180;1641;51.306;12.384;2023-04-15T03:39:00;98998.00;;;8.00
24639;BMP180;1641;51.306;12.384;2023-04-15T03:41:26;98996.00;;;8.00
24639;BMP180;1641;51.306;12.384;2023-04-15T03:43:52;99001.00;;;7.90
24639;BMP180;1641;51.306;12.384;2023-04-15T03:46:18;98993.00;;;7.80
24639;BMP180;1641;51.306;12.384;2023-04-15T03:48:43;98989.00;;;7.90
24639;BMP180;1641;51.306;12.384;2023-04-15T03:51:08;99004.00;;;7.80
24639;BMP180;1641;51.306;12.384;2023-04-15T03:53:33;98999.00;;;7.90
24639;BMP180;1641;51.306;12.384;2023-04-15T03:55:59;98991.00;;;7.90
24639;BMP180;1641;51.306;12.384;2023-04-15T03:58:24;99001.00;;;8.00
24639;BMP180;1641;51.306;12.384;2023-04-15T04:00:49;98961.00;;;7.80
24639;BMP180;1641;51.306;12.384;2023-04-15T04:03:15;99004.00;;;7.80
24639;BMP180;1641;51.306;12.384;2023-04-15T04:05:40;98999.00;;;7.90
24639;BMP180;1641;51.306;12.384;2023-04-15T04:08:06;98992.00;;;7.90
24639;BMP180;1641;51.306;12.384;2023-04-15T04:10:31;98979.00;;;7.90
24639;BMP180;1641;51.306;12.384;2023-04-15T04:12:56;98977.00;;;7.80
24639;BMP180;1641;51.306;12.384;2023-04-15T04:15:22;98976.00;;;7.80
24639;BMP180;1641;51.306;12.384;2023-04-15T04:17:47;98983.00;;;7.80
24639;BMP180;1641;51.306;12.384;2023-04-15T04:20:12;98986.00;;;7.90
24639;BMP180;1641;51.306;12.384;2023-04-15T04:22:38;98993.00;;;7.90
24639;BMP180;1641;51.306;12.384;2023-04-15T04:25:04;99006.00;;;7.70
24639;BMP180;1641;51.306;12.384;2023-04-15T04:27:29;98968.00;;;7.90
24639;BMP180;1641;51.306;12.384;2023-04-15T04:29:55;98993.00;;;7.80
24639;BMP180;1641;51.306;12.384;2023-04-15T04:32:20;98991.00;;;7.80
24639;BMP180;1641;51.306;12.384;2023-04-15T04:34:45;98993.00;;;7.80
24639;BMP180;1641;51.306;12.384;2023-04-15T04:37:12;98952.00;;;7.80
24639;BMP180;1641;51.306;12.384;2023-04-15T04:39:37;98987.00;;;7.90
24639;BMP180;1641;51.306;12.384;2023-04-15T04:42:02;99001.00;;;7.80
24639;BMP180;1641;51.306;12.384;2023-04-15T04:44:28;98960.00;;;7.90
24639;BMP180;1641;51.306;12.384;2023-04-15T04:46:53;99000.00;;;7.70
24639;BMP180;1641;51.306;12.384;2023-04-15T04:49:18;98990.00;;;7.90
24639;BMP180;1641;51.306;12.384;2023-04-15T04:51:43;98986.00;;;7.80
24639;BMP180;1641;51.306;12.384;2023-04-15T04:54:09;98959.00;;;7.80
24639;BMP180;1641;51.306;12.384;2023-04-15T04:56:34;98986.00;;;8.00
24639;BMP180;1641;51.306;12.384;2023-04-15T04:58:59;98989.00;;;8.00
24639;BMP180;1641;51.306;12.384;2023-04-15T05:01:25;99000.00;;;8.00
24639;BMP180;1641;51.306;12.384;2023-04-15T05:03:53;98960.00;;;8.00
24639;BMP180;1641;51.306;12.384;2023-04-15T05:06:18;98989.00;;;8.10
24639;BMP180;1641;51.306;12.384;2023-04-15T05:08:44;98964.00;;;7.90
24639;BMP180;1641;51.306;12.384;2023-04-15T05:11:10;98953.00;;;8.10
24639;BMP180;1641;51.306;12.384;2023-04-15T05:13:36;98972.00;;;7.90
24639;BMP180;1641;51.306;12.384;2023-04-15T05:16:05;98984.00;;;8.00
24639;BMP180;1641;51.306;12.384;2023-04-15T05:18:31;98964.00;;;8.00
24639;BMP180;1641;51.306;12.384;2023-04-15T05:20:57;98939.00;;;7.90
24639;BMP180;1641;51.306;12.384;2023-04-15T05:23:22;98985.00;;;7.80
24639;BMP180;1641;51.306;12.384;2023-04-15T05:25:47;98977.00;;;7.90
24639;BMP180;1641;51.306;12.384;2023-04-15T05:28:13;98975.00;;;7.80
24639;BMP180;1641;51.306;12.384;2023-04-15T05:30:38;98981.00;;;8.00
24639;BMP180;1641;51.306;12.384;2023-04-15T05:33:04;98980.00;;;7.90
24639;BMP180;1641;51.306;12.384;2023-04-15T05:35:29;98983.00;;;7.90
24639;BMP180;1641;51.306;12.384;2023-04-15T05:37:55;98993.00;;;8.00
24639;BMP180;1641;51.306;12.384;2023-04-15T05:40:20;98986.00;;;8.00
24639;BMP180;1641;51.306;12.384;2023-04-15T05:42:45;98985.00;;;8.00
24639;BMP180;1641;51.306;12.384;2023-04-15T05:45:10;98996.00;;;7.90
24639;BMP180;1641;51.306;12.384;2023-04-15T05:47:36;98992.00;;;8.00
24639;BMP180;1641;51.306;12.384;2023-04-15T05:50:02;98980.00;;;8.00
24639;BMP180;1641;51.306;12.384;2023-04-15T05:52:28;98966.00;;;8.00
24639;BMP180;1641;51.306;12.384;2023-04-15T05:54:53;98982.00;;;8.00
24639;BMP180;1641;51.306;12.384;2023-04-15T05:57:19;98962.00;;;8.10
24639;BMP180;1641;51.306;12.384;2023-04-15T05:59:44;98990.00;;;8.20
24639;BMP180;1641;51.306;12.384;2023-04-15T06:02:10;98976.00;;;8.10
24639;BMP180;1641;51.306;12.384;2023-04-15T06:04:35;98977.00;;;8.10
24639;BMP180;1641;51.306;12.384;2023-04-15T06:07:01;98978.00;;;8.20
24639;BMP180;1641;51.306;12.384;2023-04-15T06:09:26;98977.00;;;8.10
24639;BMP180;1641;51.306;12.384;2023-04-15T06:11:52;98976.00;;;8.10
24639;BMP180;1641;51.306;12.384;2023-04-15T06:14:18;98979.00;;;8.20
24639;BMP180;1641;51.306;12.384;2023-04-15T06:16:43;98981.00;;;8.00
24639;BMP180;1641;51.306;12.384;2023-04-15T06:19:08;98977.00;;;8.30
24639;BMP180;1641;51.306;12.384;2023-04-15T06:21:34;98976.00;;;8.10
24639;BMP180;1641;51.306;12.384;2023-04-15T06:23:59;98975.00;;;8.30
24639;BMP180;1641;51.306;12.384;2023-04-15T06:26:27;98982.00;;;8.30
24639;BMP180;1641;51.306;12.384;2023-04-15T06:28:53;98986.00;;;8.20
24639;BMP180;1641;51.306;12.384;2023-04-15T06:31:18;98985.00;;;8.20
24639;BMP180;1641;51.306;12.384;2023-04-15T06:33:43;98992.00;;;8.30
24639;BMP180;1641;51.306;12.384;2023-04-15T06:36:09;98983.00;;;8.30
24639;BMP180;1641;51.306;12.384;2023-04-15T06:38:34;98973.00;;;8.30
24639;BMP180;1641;51.306;12.384;2023-04-15T06:40:59;98988.00;;;8.10
24639;BMP180;1641;51.306;12.384;2023-04-15T06:43:24;98983.00;;;8.40
24639;BMP180;1641;51.306;12.384;2023-04-15T06:45:50;98980.00;;;8.30
24639;BMP180;1641;51.306;12.384;2023-04-15T06:48:15;98980.00;;;8.20
24639;BMP180;1641;51.306;12.384;2023-04-15T06:50:41;98974.00;;;8.30
24639;BMP180;1641;51.306;12.384;2023-04-15T06:53:07;98986.00;;;8.50
24639;BMP180;1641;51.306;12.384;2023-04-15T06:55:32;98978.00;;;8.40
24639;BMP180;1641;51.306;12.384;2023-04-15T06:57:58;98976.00;;;8.60
24639;BMP180;1641;51.306;12.384;2023-04-15T07:00:23;98995.00;;;8.70
24639;BMP180;1641;51.306;12.384;2023-04-15T07:02:49;98988.00;;;8.50
24639;BMP180;1641;51.306;12.384;2023-04-15T07:05:15;98997.00;;;8.50
24639;BMP180;1641;51.306;12.384;2023-04-15T07:07:40;99001.00;;;8.60
24639;BMP180;1641;51.306;12.384;2023-04-15T07:10:07;99004.00;;;8.60
24639;BMP180;1641;51.306;12.384;2023-04-15T07:12:33;98993.00;;;8.80
24639;BMP180;1641;51.306;12.384;2023-04-15T07:14:59;98948.00;;;8.80
24639;BMP180;1641;51.306;12.384;2023-04-15T07:17:25;98962.00;;;8.90
24639;BMP180;1641;51.306;12.384;2023-04-15T07:19:50;99015.00;;;8.80
24639;BMP180;1641;51.306;12.384;2023-04-15T07:22:15;99007.00;;;8.80
24639;BMP180;1641;51.306;12.384;2023-04-15T07:24:41;99019.00;;;8.80
24639;BMP180;1641;51.306;12.384;2023-04-15T07:27:06;98989.00;;;8.70
24639;BMP180;1641;51.306;12.384;2023-04-15T07:29:32;99011.00;;;8.60
24639;BMP180;1641;51.306;12.384;2023-04-15T07:31:57;99011.00;;;8.70
24639;BMP180;1641;51.306;12.384;2023-04-15T07:34:22;99009.00;;;8.80
24639;BMP180;1641;51.306;12.384;2023-04-15T07:36:48;98983.00;;;8.80
24639;BMP180;1641;51.306;12.384;2023-04-15T07:39:16;99008.00;;;8.90
24639;BMP180;1641;51.306;12.384;2023-04-15T07:41:41;99011.00;;;9.10
24639;BMP180;1641;51.306;12.384;2023-04-15T07:44:10;99018.00;;;8.90
24639;BMP180;1641;51.306;12.384;2023-04-15T07:46:38;99009.00;;;9.00
24639;BMP180;1641;51.306;12.384;2023-04-15T07:49:22;99015.00;;;9.10
24639;BMP180;1641;51.306;12.384;2023-04-15T07:51:48;99011.00;;;9.10
24639;BMP180;1641;51.306;12.384;2023-04-15T07:54:14;99021.00;;;9.00
24639;BMP180;1641;51.306;12.384;2023-04-15T07:56:40;99021.00;;;9.10
24639;BMP180;1641;51.306;12.384;2023-04-15T07:59:06;99019.00;;;9.00
24639;BMP180;1641;51.306;12.384;2023-04-15T08:01:34;99017.00;;;9.00
24639;BMP180;1641;51.306;12.384;2023-04-15T08:04:00;99015.00;;;9.00
24639;BMP180;1641;51.306;12.384;2023-04-15T08:06:29;98984.00;;;8.80
24639;BMP180;1641;51.306;12.384;2023-04-15T08:08:54;99026.00;;;8.80
24639;BMP180;1641;51.306;12.384;2023-04-15T08:11:23;99028.00;;;9.00
24639;BMP180;1641;51.306;12.384;2023-04-15T08:13:49;99031.00;;;9.20
24639;BMP180;1641;51.306;12.384;2023-04-15T08:16:25;99038.00;;;9.10
24639;BMP180;1641;51.306;12.384;2023-04-15T08:18:57;98992.00;;;9.30
24639;BMP180;1641;51.306;12.384;2023-04-15T08:21:23;99030.00;;;9.30
24639;BMP180;1641;51.306;12.384;2023-04-15T08:23:50;99026.00;;;9.20
24639;BMP180;1641;51.306;12.384;2023-04-15T08:26:17;99033.00;;;9.10
24639;BMP180;1641;51.306;12.384;2023-04-15T08:28:43;99038.00;;;9.30
24639;BMP180;1641;51.306;12.384;2023-04-15T08:31:09;99047.00;;;9.40
24639;BMP180;1641;51.306;12.384;2023-04-15T08:33:34;99034.00;;;9.50
24639;BMP180;1641;51.306;12.384;2023-04-15T08:35:59;99043.00;;;9.30
24639;BMP180;1641;51.306;12.384;2023-04-15T08:38:25;99042.00;;;9.40
24639;BMP180;1641;51.306;12.384;2023-04-15T08:40:50;99048.00;;;9.60
24639;BMP180;1641;51.306;12.384;2023-04-15T08:43:31;99013.00;;;9.70
24639;BMP180;1641;51.306;12.384;2023-04-15T08:45:58;99057.00;;;9.80
24639;BMP180;1641;51.306;12.384;2023-04-15T08:48:27;99057.00;;;9.80
24639;BMP180;1641;51.306;12.384;2023-04-15T08:50:53;99058.00;;;9.90
24639;BMP180;1641;51.306;12.384;2023-04-15T08:53:18;99053.00;;;9.70
24639;BMP180;1641;51.306;12.384;2023-04-15T08:55:45;99054.00;;;9.70
24639;BMP180;1641;51.306;12.384;2023-04-15T08:58:18;99054.00;;;9.70
24639;BMP180;1641;51.306;12.384;2023-04-15T09:00:53;99052.00;;;9.60
24639;BMP180;1641;51.306;12.384;2023-04-15T09:03:19;99036.00;;;9.70
24639;BMP180;1641;51.306;12.384;2023-04-15T09:05:45;99066.00;;;9.90
24639;BMP180;1641;51.306;12.384;2023-04-15T09:08:11;99076.00;;;9.80
24639;BMP180;1641;51.306;12.384;2023-04-15T09:10:36;99076.00;;;9.90
24639;BMP180;1641;51.306;12.384;2023-04-15T09:13:02;99075.00;;;9.80
24639;BMP180;1641;51.306;12.384;2023-04-15T09:15:31;99068.00;;;9.80
24639;BMP180;1641;51.306;12.384;2023-04-15T09:17:57;99054.00;;;10.00
24639;BMP180;1641;51.306;12.384;2023-04-15T09:20:25;99055.00;;;10.20
24639;BMP180;1641;51.306;12.384;2023-04-15T09:22:51;99054.00;;;10.10
24639;BMP180;1641;51.306;12.384;2023-04-15T09:27:59;99072.00;;;10.30
24639;BMP180;1641;51.306;12.384;2023-04-15T09:30:26;99078.00;;;10.40
24639;BMP180;1641;51.306;12.384;2023-04-15T09:32:57;99085.00;;;10.60
24639;BMP180;1641;51.306;12.384;2023-04-15T09:35:28;99080.00;;;10.60
24639;BMP180;1641;51.306;12.384;2023-04-15T09:38:07;99080.00;;;10.60
24639;BMP180;1641;51.306;12.384;2023-04-15T09:40:38;99090.00;;;10.80
24639;BMP180;1641;51.306;12.384;2023-04-15T09:43:04;99088.00;;;10.60
24639;BMP180;1641;51.306;12.384;2023-04-15T09:45:31;99088.00;;;10.40
24639;BMP180;1641;51.306;12.384;2023-04-15T09:47:58;99092.00;;;10.70
24639;BMP180;1641;51.306;12.384;2023-04-15T09:50:27;99101.00;;;10.90
24639;BMP180;1641;51.306;12.384;2023-04-15T09:52:53;99103.00;;;10.90
24639;BMP180;1641;51.306;12.384;2023-04-15T09:55:19;99099.00;;;10.70
24639;BMP180;1641;51.306;12.384;2023-04-15T09:57:45;99106.00;;;10.70
24639;BMP180;1641;51.306;12.384;2023-04-15T10:00:11;99102.00;;;10.60
24639;BMP180;1641;51.306;12.384;2023-04-15T10:02:41;99109.00;;;10.60
24639;BMP180;1641;51.306;12.384;2023-04-15T10:05:10;99105.00;;;10.80
24639;BMP180;1641;51.306;12.384;2023-04-15T10:07:37;99106.00;;;10.90
24639;BMP180;1641;51.306;12.384;2023-04-15T10:10:08;99106.00;;;10.80
24639;BMP180;1641;51.306;12.384;2023-04-15T10:12:36;99111.00;;;11.00
24639;BMP180;1641;51.306;12.384;2023-04-15T10:15:05;99065.00;;;11.00
24639;BMP180;1641;51.306;12.384;2023-04-15T10:17:34;99119.00;;;10.90
24639;BMP180;1641;51.306;12.384;2023-04-15T10:20:04;99073.00;;;11.10
24639;BMP180;1641;51.306;12.384;2023-04-15T10:22:31;99117.00;;;11.20
24639;BMP180;1641;51.306;12.384;2023-04-15T10:24:58;99109.00;;;11.20
24639;BMP180;1641;51.306;12.384;2023-04-15T10:27:25;99121.00;;;11.10
24639;BMP180;1641;51.306;12.384;2023-04-15T10:29:55;99102.00;;;11.20
24639;BMP180;1641;51.306;12.384;2023-04-15T10:32:21;99125.00;;;11.20
24639;BMP180;1641;51.306;12.384;2023-04-15T10:34:48;99132.00;;;11.10
24639;BMP180;1641;51.306;12.384;2023-04-15T10:37:22;99123.00;;;11.00
24639;BMP180;1641;51.306;12.384;2023-04-15T10:40:00;99123.00;;;10.90
24639;BMP180;1641;51.306;12.384;2023-04-15T10:42:33;99125.00;;;11.20
24639;BMP180;1641;51.306;12.384;2023-04-15T10:45:02;99129.00;;;11.10
24639;BMP180;1641;51.306;12.384;2023-04-15T10:47:31;99130.00;;;11.20
24639;BMP180;1641;51.306;12.384;2023-04-15T10:50:00;99130.00;;;11.40
24639;BMP180;1641;51.306;12.384;2023-04-15T10:52:41;99125.00;;;11.60
24639;BMP180;1641;51.306;12.384;2023-04-15T10:57:37;99136.00;;;11.60
24639;BMP180;1641;51.306;12.384;2023-04-15T11:02:45;99142.00;;;11.40
24639;BMP180;1641;51.306;12.384;2023-04-15T11:05:15;99141.00;;;11.50
24639;BMP180;1641;51.306;12.384;2023-04-15T11:07:51;99138.00;;;11.90
24639;BMP180;1641;51.306;12.384;2023-04-15T11:12:52;99078.00;;;11.50
24639;BMP180;1641;51.306;12.384;2023-04-15T11:15:35;99150.00;;;11.40
24639;BMP180;1641;51.306;12.384;2023-04-15T11:18:09;99100.00;;;11.30
24639;BMP180;1641;51.306;12.384;2023-04-15T11:20:36;99157.00;;;11.30
24639;BMP180;1641;51.306;12.384;2023-04-15T11:23:03;99157.00;;;11.20
24639;BMP180;1641;51.306;12.384;2023-04-15T11:25:31;99160.00;;;11.40
24639;BMP180;1641;51.306;12.384;2023-04-15T11:27:58;99166.00;;;11.40
24639;BMP180;1641;51.306;12.384;2023-04-15T11:30:32;99150.00;;;11.70
24639;BMP180;1641;51.306;12.384;2023-04-15T11:33:01;99169.00;;;11.50
24639;BMP180;1641;51.306;12.384;2023-04-15T11:35:27;99167.00;;;11.40
24639;BMP180;1641;51.306;12.384;2023-04-15T11:37:53;99156.00;;;11.30
24639;BMP180;1641;51.306;12.384;2023-04-15T11:40:24;99176.00;;;11.30
24639;BMP180;1641;51.306;12.384;2023-04-15T11:43:12;99176.00;;;11.50
24639;BMP180;1641;51.306;12.384;2023-04-15T11:45:59;99182.00;;;11.20
24639;BMP180;1641;51.306;12.384;2023-04-15T11:48:30;99193.00;;;11.40
24639;BMP180;1641;51.306;12.384;2023-04-15T11:51:01;99185.00;;;11.60
24639;BMP180;1641;51.306;12.384;2023-04-15T11:53:42;99196.00;;;11.60
24639;BMP180;1641;51.306;12.384;2023-04-15T11:56:09;99180.00;;;11.60
24639;BMP180;1641;51.306;12.384;2023-04-15T11:58:36;99191.00;;;11.30
24639;BMP180;1641;51.306;12.384;2023-04-15T12:01:11;99190.00;;;10.90
24639;BMP180;1641;51.306;12.384;2023-04-15T12:03:44;99203.00;;;11.20
24639;BMP180;1641;51.306;12.384;2023-04-15T12:06:21;99208.00;;;11.60
24639;BMP180;1641;51.306;12.384;2023-04-15T12:11:34;99212.00;;;11.60
24639;BMP180;1641;51.306;12.384;2023-04-15T12:14:15;99215.00;;;11.30
24639;BMP180;1641;51.306;12.384;2023-04-15T12:16:44;99217.00;;;11.20
24639;BMP180;1641;51.306;12.384;2023-04-15T12:19:12;99232.00;;;11.20
24639;BMP180;1641;51.306;12.384;2023-04-15T12:21:40;99228.00;;;11.60
24639;BMP180;1641;51.306;12.384;2023-04-15T12:24:08;99234.00;;;11.50
24639;BMP180;1641;51.306;12.384;2023-04-15T12:29:10;99241.00;;;11.30
24639;BMP180;1641;51.306;12.384;2023-04-15T12:31:36;99244.00;;;11.30
24639;BMP180;1641;51.306;12.384;2023-04-15T12:34:10;99237.00;;;11.30
24639;BMP180;1641;51.306;12.384;2023-04-15T12:36:35;99247.00;;;11.50
24639;BMP180;1641;51.306;12.384;2023-04-15T12:39:04;99238.00;;;11.60
24639;BMP180;1641;51.306;12.384;2023-04-15T12:41:30;99244.00;;;11.60
24639;BMP180;1641;51.306;12.384;2023-04-15T12:43:56;99249.00;;;11.80
24639;BMP180;1641;51.306;12.384;2023-04-15T12:46:21;99246.00;;;12.00
24639;BMP180;1641;51.306;12.384;2023-04-15T12:48:47;99229.00;;;12.20
24639;BMP180;1641;51.306;12.384;2023-04-15T12:51:13;99243.00;;;11.70
24639;BMP180;1641;51.306;12.384;2023-04-15T12:53:38;99250.00;;;11.70
24639;BMP180;1641;51.306;12.384;2023-04-15T12:56:03;99257.00;;;11.70
24639;BMP180;1641;51.306;12.384;2023-04-15T12:58:28;99257.00;;;11.60
24639;BMP180;1641;51.306;12.384;2023-04-15T13:00:54;99269.00;;;11.60
24639;BMP180;1641;51.306;12.384;2023-04-15T13:03:19;99266.00;;;12.00
24639;BMP180;1641;51.306;12.384;2023-04-15T13:05:44;99247.00;;;12.30
24639;BMP180;1641;51.306;12.384;2023-04-15T13:08:10;99269.00;;;12.30
24639;BMP180;1641;51.306;12.384;2023-04-15T13:10:35;99217.00;;;12.20
24639;BMP180;1641;51.306;12.384;2023-04-15T13:13:02;99270.00;;;12.20
24639;BMP180;1641;51.306;12.384;2023-04-15T13:15:27;99276.00;;;11.80
24639;BMP180;1641;51.306;12.384;2023-04-15T13:17:53;99282.00;;;11.80
24639;BMP180;1641;51.306;12.384;2023-04-15T13:20:18;99280.00;;;11.80
24639;BMP180;1641;51.306;12.384;2023-04-15T13:22:43;99279.00;;;11.60
24639;BMP180;1641;51.306;12.384;2023-04-15T13:25:09;99270.00;;;11.90
24639;BMP180;1641;51.306;12.384;2023-04-15T13:27:34;99250.00;;;12.00
24639;BMP180;1641;51.306;12.384;2023-04-15T13:29:59;99260.00;;;12.00
24639;BMP180;1641;51.306;12.384;2023-04-15T13:32:25;99292.00;;;11.90
24639;BMP180;1641;51.306;12.384;2023-04-15T13:34:50;99292.00;;;11.90
24639;BMP180;1641;51.306;12.384;2023-04-15T13:37:16;99304.00;;;12.20
24639;BMP180;1641;51.306;12.384;2023-04-15T13:39:41;99298.00;;;12.20
24639;BMP180;1641;51.306;12.384;2023-04-15T13:42:06;99305.00;;;12.00
24639;BMP180;1641;51.306;12.384;2023-04-15T13:44:31;99312.00;;;11.70
24639;BMP180;1641;51.306;12.384;2023-04-15T13:46:57;99309.00;;;12.20
24639;BMP180;1641;51.306;12.384;2023-04-15T13:49:22;99309.00;;;11.90
24639;BMP180;1641;51.306;12.384;2023-04-15T13:51:47;99319.00;;;11.90
24639;BMP180;1641;51.306;12.384;2023-04-15T13:54:12;99319.00;;;11.80
24639;BMP180;1641;51.306;12.384;2023-04-15T13:56:38;99316.00;;;12.10
24639;BMP180;1641;51.306;12.384;2023-04-15T13:59:03;99315.00;;;11.90
24639;BMP180;1641;51.306;12.384;2023-04-15T14:01:30;99289.00;;;11.80
24639;BMP180;1641;51.306;12.384;2023-04-15T14:03:55;99324.00;;;12.10
24639;BMP180;1641;51.306;12.384;2023-04-15T14:06:21;99327.00;;;12.30
24639;BMP180;1641;51.306;12.384;2023-04-15T14:08:46;99331.00;;;12.10
24639;BMP180;1641;51.306;12.384;2023-04-15T14:11:11;99326.00;;;12.10
24639;BMP180;1641;51.306;12.384;2023-04-15T14:13:36;99337.00;;;11.60
24639;BMP180;1641;51.306;12.384;2023-04-15T14:16:02;99339.00;;;11.70
24639;BMP180;1641;51.306;12.384;2023-04-15T14:18:27;99345.00;;;11.80
24639;BMP180;1641;51.306;12.384;2023-04-15T14:20:54;99347.00;;;11.90
24639;BMP180;1641;51.306;12.384;2023-04-15T14:23:20;99343.00;;;11.90
24639;BMP180;1641;51.306;12.384;2023-04-15T14:25:45;99318.00;;;12.10
24639;BMP180;1641;51.306;12.384;2023-04-15T14:28:10;99350.00;;;12.10
24639;BMP180;1641;51.306;12.384;2023-04-15T14:30:35;99361.00;;;12.30